Hyalite Weather Station

This weather station provides temperature, wind speed, gust or max wind speed, and wind direction at 9982ft near the summit of Flanders Mountain. This data can be used with temperature and precipitation data from the Shower Falls SNOTEL site. If the data has not been updated recently you can view it directly on datagarrison.com

Elevation
9982ft
Jump to table bottom
Date Time Temperature
deg F
RH, % Wind Speed Wind Gust Wind Direction
10/19/19 01:00 15.1 70 17 27 W - 250
10/19/19 00:00 15.3 76 19 31 W - 251
10/18/19 23:00 15.6 84 17 31 W - 250
10/18/19 22:00 16.6 81 20 34 W - 248
10/18/19 21:00 17.9 81 19 38 SW - 246
10/18/19 20:00 18.1 79 21 39 W - 256
10/18/19 19:00 18.4 77 25 51 W - 260
10/18/19 18:00 18.9 74 18 35 W - 263
10/18/19 17:00 19.2 79 21 40 W - 248
10/18/19 16:00 19.8 87 24 42 SW - 246
10/18/19 15:00 19.6 93 20 46 W - 251
10/18/19 14:00 18.7 94 11 37 W - 271
10/18/19 13:00 18.7 94 14 28 W - 248
10/18/19 12:00 19.4 86 20 34 SW - 243
10/18/19 11:00 19.3 87 20 32 W - 248
10/18/19 10:00 19.0 87 17 27 W - 248
10/18/19 09:00 18.2 90 18 27 W - 253
10/18/19 08:00 17.4 93 21 31 W - 251
10/18/19 07:00 15.9 93 14 26 W - 250
10/18/19 06:00 15.7 93 14 22 W - 254
10/18/19 05:00 16.0 93 14 23 W - 258
10/18/19 04:00 16.5 93 14 24 W - 258
10/18/19 03:00 16.5 94 9 21 W - 250
10/18/19 02:00 17.5 94 7 16 W - 265
10/18/19 01:00 18.4 94 10 20 W - 277
10/18/19 00:00 18.9 94 11 21 W - 264
10/17/19 23:00 21.2 95 9 16 W - 264
10/17/19 22:00 21.6 95 9 15 NW - 309
10/17/19 21:00 22.4 95 6 14 NW - 327
10/17/19 20:00 25.1 96 6 13 W - 257
10/17/19 19:00 26.0 91 8 22 NW - 313
10/17/19 18:00 31.3 66 13 31 SW - 236
10/17/19 17:00 34.1 56 16 31 SW - 234
10/17/19 16:00 35.3 49 20 40 SW - 234
10/17/19 15:00 37.3 44 23 47 SW - 234
10/17/19 14:00 39.9 37 16 38 SW - 233
10/17/19 13:00 39.0 34 14 31 SW - 239
10/17/19 12:00 40.2 33 17 44 SW - 236
10/17/19 11:00 40.1 33 17 31 SW - 233
10/17/19 10:00 39.5 32 19 37 SW - 227
10/17/19 09:00 38.8 30 20 39 SW - 225
10/17/19 08:00 39.9 28 21 41 SW - 233
10/17/19 07:00 39.5 27 20 36 SW - 237
10/17/19 06:00 38.6 25 23 41 SW - 232
10/17/19 05:00 40.7 24 27 45 SW - 232
10/17/19 04:00 40.3 25 27 41 SW - 232
10/17/19 03:00 40.4 26 32 45 SW - 232
10/17/19 02:00 39.9 26 28 44 SW - 232
10/17/19 01:00 41.4 25 28 46 SW - 236
10/17/19 00:00 41.2 24 25 40 SW - 233